Washington, DC (20520)

7:58 PM EST on March 02, 2015 (GMT -0500)
highgate-roslyn | Change Station
CLOSE
Current Station
Personal Weather Station
Location: Arlington, VA
Elevation: 180 ft
Nearby Weather Stations
Active Advisory: Winter Weather Advisory

Elev 180 ft 38.90 °N, 77.07 °W | Updated 16 seconds ago

Clear
Clear
35.1 °F
Feels Like 35 °F
N
0.0
Wind Variable Wind from SSW
Gusts 0.0 mph

Today
High -- | Low -- °F
--% Chance of Precip.
Yesterday
High -- | Low -- °F
Precip. -- in
6:39 AM 6:01 PM
Waxing Gibbous, 93% visible
Pressure 30.41 in
Visibility 10.0 miles
Clouds Clear
Windchill 35 °F
Dew Point 13 °F
Humidity 39%
Rainfall 0.14 in
Snow Depth Not available.
UV 0.0 out of 12
Pollen 5.30 out of 12
Air Quality Not available.
Flu Activity Not available.
METAR KDCA 030052Z 34009KT 10SM CLR 03/M09 A3041 RMK AO2 SLP297 T00281089 $

More Conditions Fewer Conditions

Pressure 30.41 in
Visibility 10.0 miles
Clouds Clear
Windchill 35 °F
Dew Point 13 °F
Humidity 39%
Rainfall 0.14 in
Snow Depth Not available.
UV 0.0 out of 12
Pollen 5.30 out of 12
Air Quality Not available.
Flu Activity Not available.
METAR KDCA 030052Z 34009KT 10SM CLR 03/M09 A3041 RMK AO2 SLP297 T00281089 $

More Conditions Fewer Conditions

10-Day Weather Forecast

Almanac

Astronomy

Mar. 02, 2015 Rise Set
Actual Time
Civil Twilight
Nautical Twilight
Astronomical Twilight
Moon
Length of Visible Light
Length of Day
Tomorrow will be .
, % of the Moon is Illuminated

Today's Extremes

State Highs State Lows

Community

WunderPhotos

Upload Photos

1,802,009 photos uploaded!

WunderBlogs® & News

Nearby

Air Quality

  Air Quality AQ Index Pollutant
Not available.

Snow Depth

Station Depth Elevation

Earthquake Activity

City Distance Mag. Time & Date
Minimum magnitude displayed is 2.5.

Coastal Water Temperatures

Place Temperature

Nearby Weather Stations

Winter Weather Advisory
Statement as of 3:37 PM EST on March 02, 2015

... Winter Weather Advisory in effect from 9 am to 10 PM EST
Tuesday...

The National Weather Service in Baltimore MD/Washington has
issued a Winter Weather Advisory for snow... sleet and freezing
rain... which is in effect from 9 am to 10 PM EST Tuesday.

* Locations... the Baltimore and Washington metropolitan areas and
north central Maryland.

* Hazard types... snow... sleet and freezing rain.

* Accumulations... snow accumulation of up to 1 inch... along with
around a tenth of an inch of ice.

* Timing... Tuesday morning through late Tuesday evening.

* Impacts... roads will be snow and ice covered. Travelling will be
dangerous.

* Winds... southeast 5 to 15 mph with gusts up to 25 mph.

* Temperatures... in the upper 20s.

Precautionary/preparedness actions...

A Winter Weather Advisory means that periods of snow... sleet... or
freezing rain will cause travel difficulties. Be prepared for
slippery roads and limited visibilities... and use caution while
driving.